Time;durP1;ratioP1;P1;durP2;ratioP2;P2;SDS_P1;SDS_P2;PMS_P1;PMS_P2;Temp;Humidity;BMP_temperature;BMP_pressure;BME280_temperature;BME280_humidity;BME280_pressure;Samples;Min_cycle;Max_cycle;Signal;HPM_P1;HPM_P2
2023/11/02 00:03:58;;;;;;;16.20;14.00;;;;;;;5.27;100.00;98543.03;429526;1276;139525;-64
2023/11/02 00:14:05;;;;;;;18.20;12.60;;;;;;;5.27;100.00;98538.48;429504;1274;140294;-64
2023/11/02 00:24:11;;;;;;;16.50;14.10;;;;;;;5.26;100.00;98527.83;430456;1275;139264;-65
2023/11/02 00:34:17;;;;;;;18.40;14.90;;;;;;;5.23;100.00;98522.77;429432;1270;139891;-63
2023/11/02 00:44:26;;;;;;;15.40;13.20;;;;;;;5.19;100.00;98522.45;430013;1273;139636;-63
2023/11/02 00:54:57;;;;;;;17.80;14.60;;;;;;;5.18;100.00;98501.70;430029;1275;139672;-64
2023/11/02 01:05:04;;;;;;;16.10;12.80;;;;;;;5.19;100.00;98493.28;431024;1275;140321;-64
2023/11/02 01:15:33;;;;;;;13.00;11.70;;;;;;;5.27;100.00;98474.31;431066;1275;141229;-64
2023/11/02 01:25:43;;;;;;;15.20;12.00;;;;;;;5.27;100.00;98456.44;429290;1274;140853;-64
2023/11/02 01:35:49;;;;;;;15.80;12.90;;;;;;;5.20;100.00;98455.44;429240;1276;139402;-64
2023/11/02 01:45:57;;;;;;;13.50;11.90;;;;;;;5.11;100.00;98448.67;429103;1276;139443;-63
2023/11/02 01:56:15;;;;;;;16.90;11.90;;;;;;;5.03;100.00;98439.78;429253;1275;139463;-64
2023/11/02 02:06:29;;;;;;;13.20;11.70;;;;;;;4.95;100.00;98427.58;429356;1276;139237;-65
2023/11/02 02:16:41;;;;;;;13.50;11.10;;;;;;;4.87;100.00;98418.36;429169;1276;140416;-64
2023/11/02 02:27:20;;;;;;;13.10;10.90;;;;;;;4.83;100.00;98417.56;429196;1273;140625;-64
2023/11/02 02:37:34;;;;;;;13.70;10.80;;;;;;;4.80;100.00;98404.58;429901;1272;141512;-64
2023/11/02 02:47:41;;;;;;;9.90;8.60;;;;;;;4.76;100.00;98391.61;429494;1276;139979;-64
2023/11/02 02:57:49;;;;;;;11.60;9.50;;;;;;;4.74;100.00;98387.73;430532;1276;139364;-64
2023/11/02 03:08:01;;;;;;;9.70;7.70;;;;;;;4.73;100.00;98380.49;429774;1276;139491;-65
2023/11/02 03:18:11;;;;;;;11.60;9.10;;;;;;;4.70;100.00;98372.70;430580;1276;140306;-64
2023/11/02 03:28:32;;;;;;;12.00;9.20;;;;;;;4.67;100.00;98367.17;429592;1276;139185;-64
2023/11/02 03:38:52;;;;;;;10.90;9.00;;;;;;;4.62;100.00;98355.65;429808;1274;140228;-63
2023/11/02 03:49:13;;;;;;;8.60;7.70;;;;;;;4.58;100.00;98358.88;429519;1276;141847;-64
2023/11/02 03:59:27;;;;;;;11.10;8.90;;;;;;;4.52;100.00;98349.33;429448;1275;139913;-63
2023/11/02 04:09:43;;;;;;;10.10;9.00;;;;;;;4.48;100.00;98345.36;429705;1273;139674;-63
2023/11/02 04:19:49;;;;;;;9.40;8.20;;;;;;;4.47;100.00;98337.85;430753;1274;140691;-63
2023/11/02 04:29:55;;;;;;;10.90;8.10;;;;;;;4.46;100.00;98332.52;430099;1273;140771;-65
2023/11/02 04:40:00;;;;;;;10.90;8.80;;;;;;;4.47;100.00;98311.13;429350;1274;140072;-64
2023/11/02 04:50:08;;;;;;;13.30;7.80;;;;;;;4.46;100.00;98309.29;429824;1273;139848;-63
2023/11/02 05:00:15;;;;;;;9.30;8.30;;;;;;;4.45;100.00;98298.95;430751;1276;139745;-63
2023/11/02 05:10:21;;;;;;;10.70;8.50;;;;;;;4.43;100.00;98287.66;430480;1270;139267;-64
2023/11/02 05:20:27;;;;;;;9.30;7.00;;;;;;;4.38;100.00;98276.87;429715;1275;139669;-64
2023/11/02 05:30:39;;;;;;;12.70;7.70;;;;;;;4.35;100.00;98267.48;429647;1276;140767;-64
2023/11/02 05:40:46;;;;;;;14.10;7.90;;;;;;;4.39;100.00;98252.72;429316;1275;139915;-64
2023/11/02 05:50:53;;;;;;;8.10;6.90;;;;;;;4.56;100.00;98240.25;429429;1273;139424;-63
2023/11/02 06:00:58;;;;;;;10.30;7.00;;;;;;;4.77;100.00;98232.20;429434;1273;139427;-63
2023/11/02 06:11:05;;;;;;;7.00;6.30;;;;;;;5.04;100.00;98217.02;429547;1275;139389;-63
2023/11/02 06:21:11;;;;;;;6.90;5.70;;;;;;;5.41;100.00;98213.63;429801;1276;139220;-63
2023/11/02 06:31:17;;;;;;;6.90;6.00;;;;;;;5.90;100.00;98211.13;430124;1274;139248;-73
2023/11/02 06:41:23;;;;;;;6.60;5.20;;;;;;;6.54;100.00;98210.02;430086;1274;139386;-70
2023/11/02 06:51:28;;;;;;;5.40;4.60;;;;;;;7.20;100.00;98187.25;429793;1273;156134;-72
2023/11/02 07:01:36;;;;;;;9.60;5.40;;;;;;;8.11;100.00;98183.89;431727;1270;139436;-71
2023/11/02 07:11:42;;;;;;;7.40;4.10;;;;;;;8.44;100.00;98181.73;431329;1276;139395;-72
2023/11/02 07:21:48;;;;;;;5.70;4.90;;;;;;;8.89;100.00;98170.37;429960;1274;139488;-71
2023/11/02 07:31:54;;;;;;;5.50;3.40;;;;;;;9.52;100.00;98166.60;429775;1270;139647;-71
2023/11/02 07:42:00;;;;;;;5.70;4.00;;;;;;;10.12;100.00;98136.79;429933;1273;140369;-71
2023/11/02 07:52:07;;;;;;;7.50;5.00;;;;;;;11.23;100.00;98124.17;429650;1274;140876;-72
2023/11/02 08:02:13;;;;;;;4.80;4.00;;;;;;;13.41;100.00;98102.49;430137;1274;139807;-73
2023/11/02 08:12:20;;;;;;;3.40;3.10;;;;;;;16.73;98.87;98076.73;429647;1273;139560;-73
2023/11/02 08:22:28;;;;;;;4.20;3.40;;;;;;;19.48;93.06;98053.91;430350;1274;138824;-66
2023/11/02 08:32:34;;;;;;;3.10;2.80;;;;;;;21.87;86.00;98040.66;430602;1270;138664;-66
2023/11/02 08:42:40;;;;;;;6.30;3.00;;;;;;;23.74;79.72;98026.48;430638;1270;138539;-67
2023/11/02 08:52:46;;;;;;;3.60;3.30;;;;;;;25.33;73.21;98006.34;429954;1274;138540;-71
2023/11/02 09:02:52;;;;;;;4.80;4.40;;;;;;;25.87;68.58;97985.08;429881;1273;138896;-64
2023/11/02 09:12:58;;;;;;;3.40;3.10;;;;;;;25.26;64.51;97973.51;430198;1270;139107;-65
2023/11/02 09:23:04;;;;;;;1.70;1.60;;;;;;;22.99;56.30;97977.09;429589;1271;138471;-67
2023/11/02 09:33:10;;;;;;;4.30;2.10;;;;;;;18.65;57.43;97971.83;430055;1273;139056;-74
2023/11/02 09:43:16;;;;;;;2.30;2.10;;;;;;;15.75;61.53;97960.02;432311;1273;138977;-63
2023/11/02 09:53:22;;;;;;;2.20;2.00;;;;;;;14.57;65.39;97957.12;430229;1273;138437;-75
2023/11/02 10:03:28;;;;;;;10.50;2.40;;;;;;;13.81;67.55;97936.00;433629;1269;139636;-67
2023/11/02 10:13:34;;;;;;;3.80;2.20;;;;;;;13.34;69.57;97921.70;432175;1270;140766;-70
2023/11/02 10:23:50;;;;;;;4.90;2.90;;;;;;;13.05;70.82;97905.15;429610;1273;138849;-72
2023/11/02 10:33:58;;;;;;;1.80;1.50;;;;;;;12.81;72.04;97891.02;433703;1272;138891;-75
2023/11/02 10:44:08;;;;;;;2.60;1.30;;;;;;;12.77;73.19;97862.17;433476;1274;139116;-66
2023/11/02 10:54:23;;;;;;;4.80;1.80;;;;;;;12.88;73.97;97833.08;432649;1273;138460;-77
2023/11/02 11:04:32;;;;;;;2.60;2.40;;;;;;;13.10;74.21;97824.85;433780;1271;138553;-67
2023/11/02 11:14:39;;;;;;;3.60;1.70;;;;;;;13.30;74.16;97814.56;430288;1274;139101;-72
2023/11/02 11:24:56;;;;;;;1.30;1.20;;;;;;;13.44;74.19;97808.09;431697;1273;138624;-82
2023/11/02 11:35:14;;;;;;;5.80;2.10;;;;;;;13.49;73.93;97792.41;434530;1271;138972;-74
2023/11/02 11:45:31;;;;;;;4.70;1.70;;;;;;;13.50;73.72;97775.27;433602;1270;138616;-73
2023/11/02 11:55:37;;;;;;;2.70;1.50;;;;;;;13.53;74.00;97763.55;433861;1269;138389;-76
2023/11/02 12:05:56;;;;;;;2.10;1.30;;;;;;;13.61;74.08;97745.53;436381;1270;138322;-71
2023/11/02 12:16:04;;;;;;;1.30;1.10;;;;;;;13.72;73.98;97727.24;434158;1270;138636;-70
2023/11/02 12:26:10;;;;;;;2.10;1.60;;;;;;;13.87;73.70;97720.77;430572;1272;138632;-72
2023/11/02 12:36:16;;;;;;;2.60;1.80;;;;;;;13.98;73.70;97715.70;429645;1270;138481;-66
2023/11/02 12:46:22;;;;;;;2.10;1.40;;;;;;;14.12;73.76;97696.42;429664;1270;138656;-69
2023/11/02 12:56:29;;;;;;;3.30;1.60;;;;;;;14.23;73.54;97683.27;429610;1270;138904;-65
2023/11/02 13:06:35;;;;;;;2.60;2.30;;;;;;;14.32;73.15;97683.27;433590;1274;138568;-69
2023/11/02 13:16:42;;;;;;;1.90;1.80;;;;;;;14.34;73.13;97687.59;430545;1270;141012;-65
2023/11/02 13:26:47;;;;;;;1.40;1.30;;;;;;;14.29;72.86;97664.70;429821;1270;140141;-71
2023/11/02 13:36:53;;;;;;;2.30;1.50;;;;;;;14.16;72.93;97659.05;430050;1274;138695;-73
2023/11/02 13:47:00;;;;;;;4.80;2.00;;;;;;;14.00;73.09;97650.13;431103;1270;139250;-73
2023/11/02 13:57:08;;;;;;;6.30;2.50;;;;;;;13.83;73.19;97642.59;434282;1273;138984;-74
2023/11/02 14:07:16;;;;;;;3.00;1.50;;;;;;;13.74;73.70;97626.00;434303;1270;138506;-72
2023/11/02 14:17:22;;;;;;;2.40;2.00;;;;;;;13.64;74.03;97616.52;433480;1272;138876;-75
2023/11/02 14:27:29;;;;;;;2.10;1.30;;;;;;;13.48;74.46;97613.75;435105;1270;140093;-73
2023/11/02 14:37:35;;;;;;;3.20;2.10;;;;;;;13.30;74.98;97603.26;434032;1274;138402;-73
2023/11/02 14:47:42;;;;;;;4.10;2.30;;;;;;;13.10;75.50;97601.23;433961;1269;139151;-76
2023/11/02 14:57:50;;;;;;;3.80;1.80;;;;;;;12.89;76.00;97583.50;432826;1275;140206;-65
2023/11/02 15:07:56;;;;;;;6.40;2.80;;;;;;;12.63;76.37;97574.42;430382;1269;140222;-68
2023/11/02 15:18:02;;;;;;;5.50;2.60;;;;;;;12.38;77.03;97569.23;430397;1275;139141;-72
2023/11/02 15:28:08;;;;;;;5.10;2.40;;;;;;;12.16;77.64;97561.00;434205;1275;140613;-73
2023/11/02 15:38:14;;;;;;;3.30;2.30;;;;;;;11.96;78.43;97551.78;431638;1274;139529;-64
2023/11/02 15:48:20;;;;;;;7.20;2.60;;;;;;;11.76;79.08;97532.88;430243;1274;139300;-69
2023/11/02 15:58:26;;;;;;;7.10;2.80;;;;;;;11.59;79.88;97500.69;429795;1275;139283;-66
2023/11/02 16:08:32;;;;;;;3.80;2.00;;;;;;;11.39;80.55;97491.41;429858;1270;139556;-67
2023/11/02 16:18:38;;;;;;;3.50;2.50;;;;;;;11.22;81.35;97490.46;429887;1274;140955;-65
2023/11/02 16:28:45;;;;;;;4.10;3.20;;;;;;;11.06;81.98;97492.29;429810;1274;140311;-60
2023/11/02 16:38:51;;;;;;;7.20;3.40;;;;;;;10.88;82.69;97492.08;429573;1270;139715;-60
2023/11/02 16:48:57;;;;;;;5.50;3.00;;;;;;;10.72;83.45;97486.65;429843;1275;139505;-62
2023/11/02 16:59:03;;;;;;;3.60;3.20;;;;;;;10.68;84.17;97476.70;429739;1270;140741;-62
2023/11/02 17:09:09;;;;;;;7.30;4.30;;;;;;;10.57;84.64;97462.20;429912;1274;140317;-63
2023/11/02 17:19:17;;;;;;;7.20;3.90;;;;;;;10.46;85.25;97438.63;432137;1275;139181;-63
2023/11/02 17:29:24;;;;;;;5.60;4.40;;;;;;;10.34;85.73;97423.64;430648;1274;140204;-64
2023/11/02 17:39:29;;;;;;;3.70;3.40;;;;;;;10.26;85.78;97408.52;429966;1269;142347;-62
2023/11/02 17:49:35;;;;;;;6.10;4.50;;;;;;;10.17;86.13;97405.02;429925;1271;140726;-64
2023/11/02 17:59:41;;;;;;;4.30;3.20;;;;;;;10.06;86.44;97402.00;431625;1273;140867;-64
2023/11/02 18:09:48;;;;;;;7.40;4.40;;;;;;;9.99;86.62;97414.39;430779;1271;139829;-64
2023/11/02 18:19:54;;;;;;;4.30;3.30;;;;;;;9.93;86.91;97403.09;430562;1271;139441;-64
2023/11/02 18:30:00;;;;;;;14.30;4.10;;;;;;;9.98;86.99;97388.27;430215;1275;139247;-64
2023/11/02 18:40:08;;;;;;;6.80;3.60;;;;;;;10.00;86.81;97380.05;431198;1271;140055;-63
2023/11/02 18:50:15;;;;;;;5.50;3.00;;;;;;;10.00;86.71;97374.79;430895;1276;139744;-64
2023/11/02 19:00:22;;;;;;;5.00;3.50;;;;;;;10.04;86.73;97371.46;430965;1272;147820;-64
2023/11/02 19:10:29;;;;;;;4.30;3.20;;;;;;;10.03;86.54;97361.70;430677;1271;139359;-64
2023/11/02 19:20:34;;;;;;;6.30;3.20;;;;;;;9.99;86.48;97357.06;429912;1276;140861;-63
2023/11/02 19:30:40;;;;;;;6.50;4.40;;;;;;;9.97;86.47;97361.45;429984;1274;139210;-64
2023/11/02 19:40:48;;;;;;;5.70;3.90;;;;;;;10.00;86.64;97362.78;429711;1275;140628;-63
2023/11/02 19:50:55;;;;;;;5.00;3.40;;;;;;;10.02;86.57;97364.96;431657;1271;139458;-63
2023/11/02 20:01:01;;;;;;;4.50;3.40;;;;;;;10.06;86.79;97358.02;430202;1270;139139;-63
2023/11/02 20:11:07;;;;;;;5.10;3.70;;;;;;;10.15;86.76;97353.94;430204;1274;139463;-64
2023/11/02 20:21:14;;;;;;;4.70;3.60;;;;;;;10.21;86.72;97349.69;430908;1271;140962;-62
2023/11/02 20:31:19;;;;;;;3.80;3.20;;;;;;;10.27;86.57;97344.25;430605;1274;139287;-64
2023/11/02 20:41:28;;;;;;;5.90;3.30;;;;;;;10.31;86.64;97330.75;430619;1276;139930;-64
2023/11/02 20:51:34;;;;;;;7.30;4.00;;;;;;;10.36;86.59;97319.87;430719;1270;139316;-63
2023/11/02 21:01:44;;;;;;;10.40;4.30;;;;;;;10.45;86.74;97319.21;430384;1273;139719;-64
2023/11/02 21:11:50;;;;;;;6.50;4.20;;;;;;;10.54;86.53;97311.73;430403;1276;139369;-63
2023/11/02 21:21:56;;;;;;;6.90;4.40;;;;;;;10.58;86.43;97299.06;430066;1275;139337;-64
2023/11/02 21:32:02;;;;;;;5.90;3.30;;;;;;;10.61;86.46;97288.38;430187;1273;139634;-63
2023/11/02 21:42:09;;;;;;;3.40;3.10;;;;;;;10.66;86.38;97279.33;430282;1274;139432;-63
2023/11/02 21:52:15;;;;;;;4.40;3.50;;;;;;;10.70;86.23;97273.04;430192;1275;139629;-64
2023/11/02 22:02:21;;;;;;;4.20;3.20;;;;;;;10.75;86.15;97276.70;430120;1271;139389;-63
2023/11/02 22:12:27;;;;;;;4.30;3.20;;;;;;;10.80;86.04;97276.59;430425;1275;140004;-64
2023/11/02 22:22:34;;;;;;;4.30;3.60;;;;;;;10.83;85.97;97258.79;430609;1276;140223;-64
2023/11/02 22:32:40;;;;;;;8.20;3.70;;;;;;;10.83;85.88;97260.14;430132;1276;139403;-64
2023/11/02 22:42:46;;;;;;;6.10;3.70;;;;;;;10.83;85.99;97259.64;429896;1276;139288;-64
2023/11/02 22:52:54;;;;;;;4.70;3.30;;;;;;;10.84;86.00;97248.36;429975;1277;140223;-63
2023/11/02 23:03:00;;;;;;;7.90;3.90;;;;;;;10.86;85.97;97242.56;430044;1275;140097;-63
2023/11/02 23:13:08;;;;;;;5.70;3.50;;;;;;;10.87;85.94;97231.35;430701;1276;139215;-68
2023/11/02 23:23:14;;;;;;;4.30;3.20;;;;;;;10.90;85.89;97231.81;431087;1273;139599;-68
2023/11/02 23:33:21;;;;;;;7.30;4.10;;;;;;;10.90;85.94;97235.02;429867;1275;139414;-66
2023/11/02 23:43:27;;;;;;;4.90;3.80;;;;;;;10.82;86.64;97237.48;430571;1276;139531;-67
2023/11/02 23:53:33;;;;;;;5.60;4.50;;;;;;;10.55;88.32;97230.08;429743;1275;139283;-64
